createdAt,value
2023-01-20T00:02:21.212Z,97062.28
2023-01-20T00:04:52.294Z,97061.09
2023-01-20T00:07:22.688Z,97066.56
2023-01-20T00:09:58.332Z,97063.47
2023-01-20T00:12:28.669Z,97069.22
2023-01-20T00:14:58.974Z,97076.88
2023-01-20T00:17:29.335Z,97075.25
2023-01-20T00:19:59.579Z,97073.28
2023-01-20T00:22:29.857Z,97068.09
2023-01-20T00:25:02.797Z,97071.91
2023-01-20T00:27:33.134Z,97071.25
2023-01-20T00:30:03.403Z,97083.25
2023-01-20T00:32:33.896Z,97080.44
2023-01-20T00:35:04.171Z,97078.72
2023-01-20T00:37:34.534Z,97087.06
2023-01-20T00:40:09.147Z,97091.44
2023-01-20T00:42:39.500Z,97097.84
2023-01-20T00:45:11.575Z,97097.84
2023-01-20T00:47:42.017Z,97107.72
2023-01-20T00:50:14.031Z,97112.59
2023-01-20T00:52:44.330Z,97115.66
2023-01-20T00:55:17.525Z,97124.09
2023-01-20T00:57:47.823Z,97128.84
2023-01-20T01:00:19.594Z,97134.09
2023-01-20T01:02:50.062Z,97140.88
2023-01-20T01:05:20.373Z,97135.84
2023-01-20T01:07:50.658Z,97143.19
2023-01-20T01:10:23.662Z,97143.03
2023-01-20T01:12:54.336Z,97148.47
2023-01-20T01:15:24.718Z,97146.75
2023-01-20T01:17:56.253Z,97150.19
2023-01-20T01:20:27.145Z,97156.31
2023-01-20T01:22:57.631Z,97158.53
2023-01-20T01:25:31.029Z,97156.81
2023-01-20T01:28:01.389Z,97152.03
2023-01-20T01:30:31.857Z,97158.59
2023-01-20T01:33:02.154Z,97156.81
2023-01-20T01:35:32.470Z,97162.53
2023-01-20T01:38:02.769Z,97159.28
2023-01-20T01:40:35.734Z,97165.41
2023-01-20T01:43:06.060Z,97170.66
2023-01-20T01:45:36.791Z,97164.50
2023-01-20T01:48:12.076Z,97162.50
2023-01-20T01:50:48.591Z,97170.28
2023-01-20T01:53:19.155Z,97170.63
2023-01-20T01:55:57.395Z,97171.53
2023-01-20T01:58:32.696Z,97177.75
2023-01-20T02:01:03.632Z,97167.47
2023-01-20T02:03:52.499Z,97175.41
2023-01-20T02:06:24.584Z,97178.13
2023-01-20T02:08:55.393Z,97182.31
2023-01-20T02:11:28.433Z,97180.16
2023-01-20T02:13:59.291Z,97176.16
2023-01-20T02:16:43.445Z,97181.03
2023-01-20T02:19:50.863Z,97184.28
2023-01-20T02:22:34.615Z,97196.78
2023-01-20T02:25:47.699Z,97204.97
2023-01-20T02:29:08.386Z,97203.69
2023-01-20T02:32:14.473Z,97205.94
2023-01-20T02:34:55.110Z,97204.91
2023-01-20T02:37:29.959Z,97206.44
2023-01-20T02:40:17.610Z,97209.84
2023-01-20T02:42:55.021Z,97209.06
2023-01-20T02:45:30.007Z,97208.03
2023-01-20T02:48:10.178Z,97212.25
2023-01-20T02:50:55.198Z,97213.75
2023-01-20T02:53:30.668Z,97217.19
2023-01-20T02:56:01.418Z,97218.78
2023-01-20T02:58:38.240Z,97219.47
2023-01-20T03:01:14.071Z,97223.81
2023-01-20T03:03:49.764Z,97226.41
2023-01-20T03:06:26.904Z,97228.94
2023-01-20T03:09:02.326Z,97228.94
2023-01-20T03:11:37.375Z,97228.53
2023-01-20T03:14:11.943Z,97239.88
2023-01-20T03:16:43.146Z,97232.88
2023-01-20T03:19:15.883Z,97236.22
2023-01-20T03:21:46.740Z,97233.56
2023-01-20T03:24:17.207Z,97243.13
2023-01-20T03:26:47.655Z,97243.28
2023-01-20T03:29:18.506Z,97246.19
2023-01-20T03:31:54.100Z,97250.28
2023-01-20T03:34:30.270Z,97246.00
2023-01-20T03:37:01.668Z,97249.59
2023-01-20T03:39:32.726Z,97261.47
2023-01-20T03:42:10.936Z,97261.88
2023-01-20T03:45:02.114Z,97265.22
2023-01-20T03:47:52.642Z,97267.06
2023-01-20T03:50:37.683Z,97269.91
2023-01-20T03:53:24.551Z,97273.72
2023-01-20T03:56:04.829Z,97269.81
2023-01-20T03:58:38.265Z,97274.59
2023-01-20T04:01:17.747Z,97272.53
2023-01-20T04:03:52.176Z,97276.09
2023-01-20T04:06:28.912Z,97278.41
2023-01-20T04:09:04.355Z,97271.50
2023-01-20T04:11:35.141Z,97280.09
2023-01-20T04:14:05.878Z,97275.78
2023-01-20T04:16:36.595Z,97278.00
2023-01-20T04:19:07.539Z,97281.75
2023-01-20T04:21:46.718Z,97272.22
2023-01-20T04:24:26.080Z,97276.03
2023-01-20T04:26:56.366Z,97275.88
2023-01-20T04:29:26.655Z,97283.56
2023-01-20T04:32:02.364Z,97279.94
2023-01-20T04:34:33.186Z,97283.72
2023-01-20T04:37:06.172Z,97285.94
2023-01-20T04:39:36.448Z,97292.09
2023-01-20T04:42:07.790Z,97293.19
2023-01-20T04:44:38.195Z,97297.38
2023-01-20T04:47:08.897Z,97297.97
2023-01-20T04:49:39.665Z,97302.31
2023-01-20T04:52:12.669Z,97303.94
2023-01-20T04:54:53.268Z,97314.50
2023-01-20T04:57:23.866Z,97310.19
2023-01-20T04:59:54.374Z,97314.09
2023-01-20T05:02:24.772Z,97314.09
2023-01-20T05:04:55.184Z,97312.75
2023-01-20T05:07:28.149Z,97318.25
2023-01-20T05:09:58.385Z,97309.66
2023-01-20T05:12:28.667Z,97317.44
2023-01-20T05:14:58.924Z,97326.28
2023-01-20T05:17:29.276Z,97329.97
2023-01-20T05:19:59.610Z,97336.28
2023-01-20T05:22:33.304Z,97341.06
2023-01-20T05:25:03.912Z,97337.88
2023-01-20T05:27:34.347Z,97340.56
2023-01-20T05:30:04.939Z,97347.72
2023-01-20T05:32:35.544Z,97346.09
2023-01-20T05:35:05.967Z,97351.06
2023-01-20T05:37:42.445Z,97351.47
2023-01-20T05:40:14.916Z,97364.72
2023-01-20T05:42:45.276Z,97364.47
2023-01-20T05:45:15.867Z,97358.22
2023-01-20T05:47:46.523Z,97370.94
2023-01-20T05:50:16.814Z,97369.25
2023-01-20T05:52:49.806Z,97368.03
2023-01-20T05:55:20.361Z,97371.63
2023-01-20T05:57:50.761Z,97374.34
2023-01-20T06:00:22.878Z,97383.22
2023-01-20T06:02:53.194Z,97382.38
2023-01-20T06:05:23.493Z,97381.69
2023-01-20T06:07:58.640Z,97384.50
2023-01-20T06:10:30.219Z,97388.53
2023-01-20T06:13:00.655Z,97394.50
2023-01-20T06:15:31.286Z,97398.59
2023-01-20T06:18:01.644Z,97390.13
2023-01-20T06:20:31.895Z,97392.78
2023-01-20T06:23:04.827Z,97402.50
2023-01-20T06:25:35.122Z,97398.50
2023-01-20T06:28:05.733Z,97405.91
2023-01-20T06:30:36.166Z,97397.91
2023-01-20T06:33:10.698Z,97412.13
2023-01-20T06:35:41.171Z,97415.72
2023-01-20T06:38:14.067Z,97419.06
2023-01-20T06:40:44.418Z,97420.56
2023-01-20T06:43:14.738Z,97424.34
2023-01-20T06:45:45.203Z,97426.28
2023-01-20T06:48:15.586Z,97432.16
2023-01-20T06:50:45.865Z,97436.59
2023-01-20T06:53:18.787Z,97442.91
2023-01-20T06:55:57.651Z,97439.31
2023-01-20T06:58:29.186Z,97445.81
2023-01-20T07:01:01.038Z,97450.84
2023-01-20T07:03:31.402Z,97447.19
2023-01-20T07:06:04.206Z,97456.97
2023-01-20T07:08:37.079Z,97454.34
2023-01-20T07:11:07.773Z,97453.47
2023-01-20T07:13:38.144Z,97455.56
2023-01-20T07:16:11.092Z,97458.91
2023-01-20T07:18:43.337Z,97458.13
2023-01-20T07:21:14.570Z,97464.09
2023-01-20T07:23:48.268Z,97468.16
2023-01-20T07:26:21.580Z,97475.59
2023-01-20T07:28:52.219Z,97483.63
2023-01-20T07:31:25.438Z,97489.44
2023-01-20T07:33:57.779Z,97491.91
2023-01-20T07:36:28.448Z,97494.28
2023-01-20T07:39:01.421Z,97491.91
2023-01-20T07:41:31.748Z,97504.03
2023-01-20T07:44:02.292Z,97500.78
2023-01-20T07:46:32.616Z,97509.34
2023-01-20T07:49:02.921Z,97512.13
2023-01-20T07:51:33.236Z,97523.03
2023-01-20T07:54:06.379Z,97518.78
2023-01-20T07:56:36.737Z,97518.50
2023-01-20T07:59:07.194Z,97525.00
2023-01-20T08:01:37.656Z,97527.59
2023-01-20T08:04:08.108Z,97532.28
2023-01-20T08:06:38.503Z,97535.28
2023-01-20T08:09:14.766Z,97535.91
2023-01-20T08:11:45.106Z,97537.09
2023-01-20T08:14:15.522Z,97535.50
2023-01-20T08:16:45.898Z,97545.22
2023-01-20T08:19:16.236Z,97539.28
2023-01-20T08:21:46.514Z,97547.81
2023-01-20T08:24:19.424Z,97552.94
2023-01-20T08:26:49.736Z,97548.94
2023-01-20T08:29:20.274Z,97566.00
2023-01-20T08:31:50.700Z,97565.09
2023-01-20T08:34:21.633Z,97572.66
2023-01-20T08:36:54.109Z,97571.72
2023-01-20T08:39:27.272Z,97580.69
2023-01-20T08:41:57.608Z,97577.88
2023-01-20T08:44:31.007Z,97583.28
2023-01-20T08:47:03.226Z,97591.03
2023-01-20T08:49:33.549Z,97586.50
2023-01-20T08:52:04.210Z,97591.03
2023-01-20T08:54:37.300Z,97595.59
2023-01-20T08:57:08.027Z,97597.47
2023-01-20T08:59:38.399Z,97604.81
2023-01-20T09:02:08.889Z,97606.63
2023-01-20T09:04:40.132Z,97608.59
2023-01-20T09:07:10.239Z,97606.47
2023-01-20T09:09:43.339Z,97613.41
2023-01-20T09:12:13.860Z,97611.34
2023-01-20T09:14:44.399Z,97611.69
2023-01-20T09:17:14.863Z,97611.19
2023-01-20T09:19:45.304Z,97607.16
2023-01-20T09:22:16.643Z,97607.63
2023-01-20T09:24:49.698Z,97614.53
2023-01-20T09:27:19.962Z,97613.59
2023-01-20T09:29:50.723Z,97621.81
2023-01-20T09:32:21.009Z,97624.97
2023-01-20T09:34:51.341Z,97623.66
2023-01-20T09:37:34.017Z,97623.78
2023-01-20T09:40:32.229Z,97632.34
2023-01-20T09:43:29.174Z,97630.03
2023-01-20T09:46:06.095Z,97634.72
2023-01-20T09:49:00.708Z,97635.75
2023-01-20T09:51:53.734Z,97629.16
2023-01-20T09:54:33.472Z,97636.25
2023-01-20T09:57:10.190Z,97631.88
2023-01-20T09:59:47.296Z,97634.97
2023-01-20T10:02:25.436Z,97636.00
2023-01-20T10:05:02.162Z,97644.09
2023-01-20T10:07:40.782Z,97642.56
2023-01-20T10:10:17.855Z,97636.16
2023-01-20T10:12:56.289Z,97629.81
2023-01-20T10:15:30.941Z,97641.88
2023-01-20T10:18:05.965Z,97644.25
2023-01-20T10:20:45.618Z,97645.56
2023-01-20T10:23:24.661Z,97641.53
2023-01-20T10:26:00.122Z,97636.94
2023-01-20T10:28:38.756Z,97652.31
2023-01-20T10:31:09.402Z,97650.25
2023-01-20T10:33:42.565Z,97649.91
2023-01-20T10:36:21.297Z,97649.50
2023-01-20T10:38:58.878Z,97645.03
2023-01-20T10:41:40.888Z,97646.50
2023-01-20T10:44:16.747Z,97649.06
2023-01-20T10:47:19.695Z,97655.41
2023-01-20T10:50:28.569Z,97650.03
2023-01-20T10:53:34.113Z,97643.28
2023-01-20T10:56:26.998Z,97647.13
2023-01-20T10:58:57.996Z,97651.59
2023-01-20T11:01:31.215Z,97655.94
2023-01-20T11:04:01.550Z,97658.75
2023-01-20T11:06:32.046Z,97661.06
2023-01-20T11:09:24.138Z,97669.19
2023-01-20T11:11:55.719Z,97658.50
2023-01-20T11:14:26.529Z,97672.00
2023-01-20T11:17:05.875Z,97664.75
2023-01-20T11:19:52.693Z,97668.00
2023-01-20T11:22:32.221Z,97669.53
2023-01-20T11:25:04.211Z,97674.66
2023-01-20T11:27:43.669Z,97678.59
2023-01-20T11:30:29.690Z,97683.47
2023-01-20T11:33:22.080Z,97675.88
2023-01-20T11:36:04.187Z,97686.41
2023-01-20T11:38:44.238Z,97684.41
2023-01-20T11:41:23.306Z,97686.03
2023-01-20T11:43:55.646Z,97689.69
2023-01-20T11:46:30.456Z,97695.19
2023-01-20T11:49:19.967Z,97700.66
2023-01-20T11:51:53.866Z,97706.47
2023-01-20T11:54:27.436Z,97708.25
2023-01-20T11:57:01.729Z,97711.25
2023-01-20T11:59:35.105Z,97713.50
2023-01-20T12:02:27.518Z,97709.41
2023-01-20T12:05:17.334Z,97706.13
2023-01-20T12:07:50.629Z,97703.19
2023-01-20T12:10:26.761Z,97702.72
2023-01-20T12:13:01.970Z,97707.78
2023-01-20T12:15:36.821Z,97705.13
2023-01-20T12:18:18.491Z,97708.56
2023-01-20T12:20:58.955Z,97711.97
2023-01-20T12:23:46.014Z,97715.56
2023-01-20T12:26:18.939Z,97717.00
2023-01-20T12:29:05.390Z,97721.72
2023-01-20T12:31:36.409Z,97724.03
2023-01-20T12:34:10.041Z,97724.38
2023-01-20T12:37:01.414Z,97729.44
2023-01-20T12:40:00.147Z,97726.69
2023-01-20T12:43:18.773Z,97732.25
2023-01-20T12:46:03.461Z,97733.63
2023-01-20T12:48:47.215Z,97742.63
2023-01-20T12:51:36.329Z,97742.25
2023-01-20T12:54:48.445Z,97744.47
2023-01-20T12:57:33.094Z,97753.94
2023-01-20T13:00:26.795Z,97746.13
2023-01-20T13:03:32.990Z,97749.47
2023-01-20T13:06:36.284Z,97753.22
2023-01-20T13:09:27.352Z,97749.00
2023-01-20T13:12:15.075Z,97760.66
2023-01-20T13:14:48.775Z,97752.75
2023-01-20T13:17:30.155Z,97756.72
2023-01-20T13:20:02.445Z,97765.63
2023-01-20T13:22:35.172Z,97761.88
2023-01-20T13:25:09.448Z,97763.25
2023-01-20T13:27:41.402Z,97763.25
2023-01-20T13:30:44.579Z,97757.28
2023-01-20T13:33:36.007Z,97769.06
2023-01-20T13:36:20.002Z,97774.28
2023-01-20T13:38:52.100Z,97771.97
2023-01-20T13:41:56.051Z,97776.25
2023-01-20T13:44:37.408Z,97777.34
2023-01-20T13:47:10.115Z,97783.44
2023-01-20T13:49:54.738Z,97792.84
2023-01-20T13:53:18.391Z,97789.25
2023-01-20T13:55:58.007Z,97783.44
2023-01-20T13:58:33.017Z,97794.28
2023-01-20T14:01:05.908Z,97796.72
2023-01-20T14:03:37.932Z,97800.81
2023-01-20T14:06:11.385Z,97797.81
2023-01-20T14:08:45.248Z,97796.47
2023-01-20T14:11:18.872Z,97806.41
2023-01-20T14:13:59.688Z,97815.06
2023-01-20T14:16:33.039Z,97806.16
2023-01-20T14:19:17.845Z,97816.81
2023-01-20T14:21:48.231Z,97815.38
2023-01-20T14:24:35.572Z,97807.25
2023-01-20T14:27:18.378Z,97819.03
2023-01-20T14:29:53.954Z,97821.19
2023-01-20T14:32:28.576Z,97823.22
2023-01-20T14:34:59.952Z,97824.91
2023-01-20T14:37:33.306Z,97830.06
2023-01-20T14:40:09.946Z,97830.97
2023-01-20T14:42:41.475Z,97842.34
2023-01-20T14:45:26.745Z,97843.63
2023-01-20T14:47:57.814Z,97844.91
2023-01-20T14:50:28.895Z,97847.28
2023-01-20T14:52:59.448Z,97848.88
2023-01-20T14:55:35.650Z,97852.13
2023-01-20T14:58:11.938Z,97859.63
2023-01-20T15:00:49.690Z,97854.25
2023-01-20T15:03:25.006Z,97861.75
2023-01-20T15:05:59.522Z,97867.34
2023-01-20T15:09:04.434Z,97868.19
2023-01-20T15:11:36.984Z,97881.97
2023-01-20T15:14:15.095Z,97883.19
2023-01-20T15:16:53.692Z,97884.06
2023-01-20T15:19:35.742Z,97883.47
2023-01-20T15:22:23.246Z,97894.81
2023-01-20T15:24:54.079Z,97896.88
2023-01-20T15:27:34.510Z,97899.16
2023-01-20T15:30:17.419Z,97903.84
2023-01-20T15:32:51.759Z,97908.56
2023-01-20T15:35:26.101Z,97909.75
2023-01-20T15:37:56.915Z,97907.03
2023-01-20T15:40:29.153Z,97914.78
2023-01-20T15:42:59.622Z,97910.53
2023-01-20T15:45:29.981Z,97921.47
2023-01-20T15:48:05.281Z,97927.34
2023-01-20T15:50:36.009Z,97917.59
2023-01-20T15:53:06.599Z,97932.47
2023-01-20T15:55:37.465Z,97928.63
2023-01-20T15:58:25.794Z,97933.72
2023-01-20T16:00:57.875Z,97933.34
2023-01-20T16:03:35.046Z,97935.31
2023-01-20T16:06:05.479Z,97945.03
2023-01-20T16:08:40.322Z,97946.59
2023-01-20T16:11:13.382Z,97952.94
2023-01-20T16:13:44.509Z,97944.34
2023-01-20T16:16:17.646Z,97950.66
2023-01-20T16:18:51.296Z,97951.84
2023-01-20T16:21:22.871Z,97951.97
2023-01-20T16:23:53.134Z,97966.00
2023-01-20T16:26:25.847Z,97964.44
2023-01-20T16:28:59.381Z,97970.72
2023-01-20T16:31:30.959Z,97963.72
2023-01-20T16:34:04.510Z,97973.13
2023-01-20T16:36:34.899Z,97968.47
2023-01-20T16:39:05.344Z,97976.72
2023-01-20T16:41:36.687Z,97984.50
2023-01-20T16:44:07.725Z,97987.59
2023-01-20T16:46:39.330Z,97982.50
2023-01-20T16:49:12.298Z,97998.91
2023-01-20T16:51:42.870Z,98001.63
2023-01-20T16:54:13.320Z,98004.38
2023-01-20T16:56:43.693Z,98003.63
2023-01-20T16:59:14.197Z,98001.03
2023-01-20T17:01:44.628Z,98000.66
2023-01-20T17:04:17.613Z,98000.75
2023-01-20T17:06:48.035Z,98008.25
2023-01-20T17:09:18.347Z,98007.84
2023-01-20T17:11:48.704Z,98014.09
2023-01-20T17:14:19.191Z,98015.66
2023-01-20T17:16:49.513Z,98020.34
2023-01-20T17:19:22.455Z,98017.22
2023-01-20T17:21:54.697Z,98026.19
2023-01-20T17:24:25.321Z,98028.91
2023-01-20T17:26:56.221Z,98035.94
2023-01-20T17:29:26.572Z,98032.75
2023-01-20T17:31:56.941Z,98035.94
2023-01-20T17:34:30.062Z,98039.47
2023-01-20T17:37:00.291Z,98040.66
2023-01-20T17:39:30.539Z,98041.78
2023-01-20T17:42:00.918Z,98049.59
2023-01-20T17:44:31.349Z,98042.13
2023-01-20T17:47:01.676Z,98053.03
2023-01-20T17:49:37.650Z,98051.44
2023-01-20T17:52:08.757Z,98058.41
2023-01-20T17:54:39.246Z,98056.88
2023-01-20T17:57:10.449Z,98057.59
2023-01-20T17:59:40.922Z,98060.28
2023-01-20T18:02:14.730Z,98063.38
2023-01-20T18:04:47.781Z,98070.06
2023-01-20T18:07:18.111Z,98069.28
2023-01-20T18:09:48.450Z,98076.31
2023-01-20T18:12:18.896Z,98071.25
2023-01-20T18:14:49.177Z,98069.28
2023-01-20T18:17:19.500Z,98074.84
2023-01-20T18:19:52.455Z,98081.19
2023-01-20T18:22:22.834Z,98075.78
2023-01-20T18:24:53.314Z,98073.53
2023-01-20T18:27:23.791Z,98086.78
2023-01-20T18:29:54.249Z,98082.78
2023-01-20T18:32:24.502Z,98089.03
2023-01-20T18:34:57.497Z,98093.31
2023-01-20T18:37:27.956Z,98095.22
2023-01-20T18:39:58.270Z,98099.84
2023-01-20T18:42:28.932Z,98099.50
2023-01-20T18:44:59.289Z,98092.94
2023-01-20T18:47:29.570Z,98105.44
2023-01-20T18:50:02.466Z,98098.47
2023-01-20T18:52:32.818Z,98096.53
2023-01-20T18:55:03.125Z,98099.22
2023-01-20T18:57:33.447Z,98110.88
2023-01-20T19:00:03.763Z,98112.44
2023-01-20T19:02:34.508Z,98113.16
2023-01-20T19:05:08.626Z,98113.88
2023-01-20T19:07:38.915Z,98103.78
2023-01-20T19:10:10.072Z,98111.59
2023-01-20T19:12:40.536Z,98116.69
2023-01-20T19:15:12.773Z,98110.88
2023-01-20T19:17:43.043Z,98113.97
2023-01-20T19:20:16.810Z,98123.31
2023-01-20T19:22:47.189Z,98124.81
2023-01-20T19:25:17.701Z,98124.00
2023-01-20T19:27:48.161Z,98122.41
2023-01-20T19:30:21.039Z,98130.19
2023-01-20T19:32:51.293Z,98126.63
2023-01-20T19:35:24.343Z,98129.03
2023-01-20T19:37:54.601Z,98125.88
2023-01-20T19:40:25.077Z,98125.50
2023-01-20T19:42:55.427Z,98134.13
2023-01-20T19:45:36.726Z,98126.69
2023-01-20T19:48:15.063Z,98139.94
2023-01-20T19:50:47.989Z,98134.88
2023-01-20T19:53:18.394Z,98140.72
2023-01-20T19:55:49.265Z,98137.13
2023-01-20T19:58:19.684Z,98145.75
2023-01-20T20:00:50.136Z,98138.78
2023-01-20T20:03:20.782Z,98146.22
2023-01-20T20:05:53.733Z,98148.19
2023-01-20T20:08:25.334Z,98156.75
2023-01-20T20:10:55.815Z,98157.59
2023-01-20T20:13:26.413Z,98154.84
2023-01-20T20:16:04.200Z,98166.13
2023-01-20T20:18:35.072Z,98164.56
2023-01-20T20:21:08.695Z,98161.81
2023-01-20T20:23:38.996Z,98161.00
2023-01-20T20:26:09.386Z,98157.84
2023-01-20T20:28:39.715Z,98164.47
2023-01-20T20:31:12.240Z,98171.53
2023-01-20T20:33:42.821Z,98161.38
2023-01-20T20:36:16.395Z,98165.66
2023-01-20T20:38:51.331Z,98171.94
2023-01-20T20:41:22.434Z,98170.75
2023-01-20T20:43:52.887Z,98175.44
2023-01-20T20:46:23.944Z,98176.22
2023-01-20T20:48:59.334Z,98176.22
2023-01-20T20:51:34.498Z,98178.63
2023-01-20T20:54:06.136Z,98182.22
2023-01-20T20:56:37.071Z,98186.63
2023-01-20T20:59:07.546Z,98194.50
2023-01-20T21:01:38.074Z,98199.13
2023-01-20T21:04:09.395Z,98198.78
2023-01-20T21:06:42.351Z,98202.19
2023-01-20T21:09:13.159Z,98203.75
2023-01-20T21:11:43.590Z,98214.28
2023-01-20T21:14:13.939Z,98206.88
2023-01-20T21:16:44.458Z,98203.75
2023-01-20T21:19:14.728Z,98213.09
2023-01-20T21:21:47.728Z,98213.91
2023-01-20T21:24:18.134Z,98212.41
2023-01-20T21:26:48.430Z,98220.59
2023-01-20T21:29:18.833Z,98221.38
2023-01-20T21:31:50.519Z,98219.44
2023-01-20T21:34:20.904Z,98211.63
2023-01-20T21:36:53.882Z,98218.25
2023-01-20T21:39:24.230Z,98214.34
2023-01-20T21:41:54.575Z,98215.91
2023-01-20T21:44:33.159Z,98223.72
2023-01-20T21:47:05.847Z,98220.19
2023-01-20T21:49:48.594Z,98217.47
2023-01-20T21:52:37.219Z,98223.72
2023-01-20T21:55:10.743Z,98227.56
2023-01-20T21:57:41.614Z,98229.53
2023-01-20T22:00:14.995Z,98239.66
2023-01-20T22:02:47.602Z,98234.22
2023-01-20T22:05:18.400Z,98243.97
2023-01-20T22:07:51.422Z,98245.47
2023-01-20T22:10:21.993Z,98247.84
2023-01-20T22:12:52.340Z,98244.34
2023-01-20T22:15:22.669Z,98240.44
2023-01-20T22:17:52.938Z,98255.63
2023-01-20T22:20:25.264Z,98254.09
2023-01-20T22:22:58.270Z,98251.38
2023-01-20T22:25:28.866Z,98255.28
2023-01-20T22:27:59.415Z,98253.72
2023-01-20T22:30:30.059Z,98259.91
2023-01-20T22:33:00.472Z,98252.50
2023-01-20T22:35:30.786Z,98255.63
2023-01-20T22:38:03.831Z,98256.84
2023-01-20T22:40:34.371Z,98263.09
2023-01-20T22:43:04.986Z,98261.53
2023-01-20T22:45:35.427Z,98270.56
2023-01-20T22:48:05.919Z,98262.75
2023-01-20T22:50:36.868Z,98274.09
2023-01-20T22:53:09.883Z,98269.00
2023-01-20T22:55:49.011Z,98270.94
2023-01-20T22:58:30.185Z,98277.19
2023-01-20T23:01:00.661Z,98277.25
2023-01-20T23:03:31.311Z,98271.78
2023-01-20T23:06:03.107Z,98272.94
2023-01-20T23:08:36.465Z,98272.19
2023-01-20T23:11:09.642Z,98276.91
2023-01-20T23:13:40.492Z,98274.59
2023-01-20T23:16:16.668Z,98273.41
2023-01-20T23:18:47.226Z,98276.16
2023-01-20T23:21:18.629Z,98284.72
2023-01-20T23:23:55.151Z,98286.72
2023-01-20T23:26:27.777Z,98277.75
2023-01-20T23:28:59.517Z,98277.84
2023-01-20T23:31:33.628Z,98277.84
2023-01-20T23:34:04.091Z,98288.41
2023-01-20T23:36:34.470Z,98286.44
2023-01-20T23:39:07.405Z,98286.09
2023-01-20T23:41:37.623Z,98290.78
2023-01-20T23:44:08.426Z,98301.34
2023-01-20T23:46:38.807Z,98297.06
2023-01-20T23:49:09.100Z,98293.94
2023-01-20T23:51:39.628Z,98303.31
2023-01-20T23:54:14.488Z,98303.38
2023-01-20T23:56:44.758Z,98300.22
2023-01-20T23:59:15.220Z,98297.09
